Time;durP1;ratioP1;P1;durP2;ratioP2;P2;SDS_P1;SDS_P2;PMS_P1;PMS_P2;Temp;Humidity;BMP_temperature;BMP_pressure;BME280_temperature;BME280_humidity;BME280_pressure;Samples;Min_cycle;Max_cycle;Signal;HPM_P1;HPM_P2
2022/11/27 00:02:18;;;;;;;;;;;8.70;99.90;;;;;;5040431;28;19964;-61
2022/11/27 00:04:47;;;;;;;;;;;8.80;99.90;;;;;;5045475;28;20049;-62
2022/11/27 00:07:15;;;;;;;;;;;8.80;99.90;;;;;;5045506;28;19975;-62
2022/11/27 00:09:42;;;;;;;;;;;8.90;99.90;;;;;;5048098;28;19968;-62
2022/11/27 00:12:10;;;;;;;;;;;8.90;99.90;;;;;;5043855;28;20348;-62
2022/11/27 00:14:38;;;;;;;;;;;9.00;99.90;;;;;;5038810;28;19964;-62
2022/11/27 00:17:05;;;;;;;;;;;9.00;99.90;;;;;;5047179;28;19974;-62
2022/11/27 00:19:33;;;;;;;;;;;9.00;99.90;;;;;;5048349;28;20356;-61
2022/11/27 00:22:02;;;;;;;;;;;8.90;99.90;;;;;;5040165;28;19964;-62
2022/11/27 00:24:30;;;;;;;;;;;9.00;99.90;;;;;;5039361;28;20471;-62
2022/11/27 00:26:58;;;;;;;;;;;8.90;99.90;;;;;;5041158;28;20341;-62
2022/11/27 00:29:28;;;;;;;;;;;9.00;99.90;;;;;;5044913;28;20396;-62
2022/11/27 00:31:55;;;;;;;;;;;9.00;99.90;;;;;;5046795;28;19999;-62
2022/11/27 00:34:23;;;;;;;;;;;8.90;99.90;;;;;;5045737;28;19964;-62
2022/11/27 00:36:51;;;;;;;;;;;8.70;99.90;;;;;;5043185;28;19964;-61
2022/11/27 00:39:20;;;;;;;;;;;8.40;99.90;;;;;;5038711;28;20701;-61
2022/11/27 00:41:48;;;;;;;;;;;8.20;99.90;;;;;;5042468;28;19964;-61
2022/11/27 00:44:16;;;;;;;;;;;8.30;99.90;;;;;;5040205;28;19971;-61
2022/11/27 00:46:43;;;;;;;;;;;8.50;99.90;;;;;;5041917;28;19972;-61
2022/11/27 00:49:13;;;;;;;;;;;8.50;99.90;;;;;;5049736;28;20314;-61
2022/11/27 00:51:41;;;;;;;;;;;8.30;99.90;;;;;;5041631;28;19965;-61
2022/11/27 00:54:09;;;;;;;;;;;8.10;99.90;;;;;;5037167;28;19968;-61
2022/11/27 00:56:39;;;;;;;;;;;8.00;99.90;;;;;;5039684;28;19972;-61
2022/11/27 00:59:07;;;;;;;;;;;8.10;99.90;;;;;;5038157;28;20063;-61
2022/11/27 01:01:36;;;;;;;;;;;8.30;99.90;;;;;;5040812;28;20055;-61
2022/11/27 01:04:05;;;;;;;;;;;8.40;99.90;;;;;;5038564;28;19964;-61
2022/11/27 01:06:33;;;;;;;;;;;8.60;99.90;;;;;;5045672;28;19964;-61
2022/11/27 01:09:00;;;;;;;;;;;8.70;99.90;;;;;;5047034;28;20440;-61
2022/11/27 01:11:30;;;;;;;;;;;8.70;99.90;;;;;;5041887;28;19975;-61
2022/11/27 01:14:00;;;;;;;;;;;8.70;99.90;;;;;;5041309;28;19965;-61
2022/11/27 01:16:29;;;;;;;;;;;8.80;99.90;;;;;;5042955;28;20449;-61
2022/11/27 01:18:58;;;;;;;;;;;8.80;99.90;;;;;;5047757;28;19971;-62
2022/11/27 01:21:26;;;;;;;;;;;8.80;99.90;;;;;;5047796;28;19995;-61
2022/11/27 01:23:54;;;;;;;;;;;8.90;99.90;;;;;;5042198;28;19987;-61
2022/11/27 01:26:22;;;;;;;;;;;8.90;99.90;;;;;;5043401;28;19964;-61
2022/11/27 01:28:51;;;;;;;;;;;8.80;99.90;;;;;;5042007;28;19970;-61
2022/11/27 01:31:22;;;;;;;;;;;9.00;99.90;;;;;;5043957;28;20425;-61
2022/11/27 01:33:52;;;;;;;;;;;9.00;99.90;;;;;;5043550;28;19964;-61
2022/11/27 01:36:19;;;;;;;;;;;9.10;99.90;;;;;;5042694;28;20340;-61
2022/11/27 01:38:47;;;;;;;;;;;9.00;99.90;;;;;;5050361;28;19970;-61
2022/11/27 01:41:16;;;;;;;;;;;9.10;99.90;;;;;;5047148;28;19972;-61
2022/11/27 01:43:45;;;;;;;;;;;9.10;99.90;;;;;;5050284;28;19964;-61
2022/11/27 01:46:28;;;;;;;;;;;9.10;99.90;;;;;;5049495;28;19974;-61
2022/11/27 01:48:57;;;;;;;;;;;9.20;99.90;;;;;;5049193;28;19971;-62
2022/11/27 01:51:25;;;;;;;;;;;9.20;99.90;;;;;;5047110;28;20150;-61
2022/11/27 01:53:53;;;;;;;;;;;9.20;99.90;;;;;;5039368;28;19975;-61
2022/11/27 01:56:21;;;;;;;;;;;9.30;99.90;;;;;;5046018;28;20360;-62
2022/11/27 01:58:50;;;;;;;;;;;9.30;99.90;;;;;;5045854;28;19971;-62
2022/11/27 02:01:18;;;;;;;;;;;9.30;99.90;;;;;;5047536;28;19976;-62
2022/11/27 02:03:47;;;;;;;;;;;9.20;99.90;;;;;;5046990;28;20372;-62
2022/11/27 02:06:15;;;;;;;;;;;9.30;99.90;;;;;;5048883;28;19983;-62
2022/11/27 02:08:42;;;;;;;;;;;9.20;99.90;;;;;;5044094;28;19970;-62
2022/11/27 02:11:13;;;;;;;;;;;9.30;99.90;;;;;;5044522;28;20452;-62
2022/11/27 02:13:43;;;;;;;;;;;9.30;99.90;;;;;;5047867;28;19965;-62
2022/11/27 02:16:14;;;;;;;;;;;9.30;99.90;;;;;;5045462;28;19964;-61
2022/11/27 02:18:51;;;;;;;;;;;9.20;99.90;;;;;;5052363;28;20433;-62
2022/11/27 02:21:23;;;;;;;;;;;9.20;99.90;;;;;;5042867;28;20365;-63
2022/11/27 02:24:06;;;;;;;;;;;9.00;99.90;;;;;;5042839;28;19964;-61
2022/11/27 02:26:44;;;;;;;;;;;8.90;99.90;;;;;;5041594;28;20499;-61
2022/11/27 02:29:13;;;;;;;;;;;8.70;99.90;;;;;;5043315;28;19970;-61
2022/11/27 02:31:44;;;;;;;;;;;8.70;99.90;;;;;;5044476;28;19968;-61
2022/11/27 02:34:17;;;;;;;;;;;8.70;99.90;;;;;;5048532;28;19991;-61
2022/11/27 02:36:48;;;;;;;;;;;8.50;99.90;;;;;;5044677;28;19971;-61
2022/11/27 02:39:18;;;;;;;;;;;8.60;99.90;;;;;;5047707;28;19970;-61
2022/11/27 02:41:49;;;;;;;;;;;8.60;99.90;;;;;;5043905;28;20442;-61
2022/11/27 02:44:18;;;;;;;;;;;8.70;99.90;;;;;;5045248;28;20467;-61
2022/11/27 02:46:46;;;;;;;;;;;8.70;99.90;;;;;;5040938;28;19964;-61
2022/11/27 02:49:16;;;;;;;;;;;8.70;99.90;;;;;;5044964;28;20055;-62
2022/11/27 02:51:46;;;;;;;;;;;8.70;99.90;;;;;;5045189;28;19974;-62
2022/11/27 02:54:15;;;;;;;;;;;8.70;99.90;;;;;;5050244;28;19964;-62
2022/11/27 02:56:44;;;;;;;;;;;8.70;99.90;;;;;;5049425;28;20432;-61
2022/11/27 02:59:13;;;;;;;;;;;8.60;99.90;;;;;;5041734;28;19965;-62
2022/11/27 03:01:44;;;;;;;;;;;8.60;99.90;;;;;;5040492;28;19964;-62
2022/11/27 03:04:14;;;;;;;;;;;8.60;99.90;;;;;;5040132;28;19964;-62
2022/11/27 03:06:44;;;;;;;;;;;8.50;99.90;;;;;;5045159;28;19965;-62
2022/11/27 03:09:14;;;;;;;;;;;8.50;99.90;;;;;;5048093;28;19964;-62
2022/11/27 03:11:42;;;;;;;;;;;8.60;99.90;;;;;;5048030;28;19970;-62
2022/11/27 03:14:12;;;;;;;;;;;8.70;99.90;;;;;;5043605;28;19971;-61
2022/11/27 03:16:42;;;;;;;;;;;8.70;99.90;;;;;;5046699;28;19964;-61
2022/11/27 03:19:16;;;;;;;;;;;8.60;99.90;;;;;;5046446;28;19968;-61
2022/11/27 03:21:46;;;;;;;;;;;8.70;99.90;;;;;;5044412;28;19964;-62
2022/11/27 03:24:14;;;;;;;;;;;8.70;99.90;;;;;;5046267;28;19964;-62
2022/11/27 03:26:42;;;;;;;;;;;8.70;99.90;;;;;;5046364;28;20051;-62
2022/11/27 03:29:12;;;;;;;;;;;8.60;99.90;;;;;;5045680;28;19971;-62
2022/11/27 03:31:40;;;;;;;;;;;8.50;99.90;;;;;;5048824;28;20051;-62
2022/11/27 03:34:08;;;;;;;;;;;8.30;99.90;;;;;;5044158;28;19976;-62
2022/11/27 03:36:37;;;;;;;;;;;8.20;99.90;;;;;;5063086;22;22195;-65
2022/11/27 03:39:05;;;;;;;;;;;8.20;99.90;;;;;;5026038;28;20461;-65
2022/11/27 03:41:38;;;;;;;;;;;8.10;99.90;;;;;;5031892;28;19968;-65
2022/11/27 03:44:10;;;;;;;;;;;8.00;99.90;;;;;;5034719;28;20454;-65
2022/11/27 03:46:45;;;;;;;;;;;7.80;99.90;;;;;;5030669;28;19964;-65
2022/11/27 03:49:17;;;;;;;;;;;7.80;99.90;;;;;;5029281;28;19965;-64
2022/11/27 03:51:51;;;;;;;;;;;7.70;99.90;;;;;;5022601;28;19965;-65
2022/11/27 03:54:26;;;;;;;;;;;7.70;99.90;;;;;;5020117;28;20015;-66
2022/11/27 03:56:56;;;;;;;;;;;7.60;99.90;;;;;;5024367;28;19973;-65
2022/11/27 03:59:26;;;;;;;;;;;7.40;99.90;;;;;;5019910;28;19965;-65
2022/11/27 04:01:53;;;;;;;;;;;7.20;99.90;;;;;;5020663;28;20357;-65
2022/11/27 04:04:21;;;;;;;;;;;7.10;99.90;;;;;;5028126;28;20055;-65
2022/11/27 04:06:50;;;;;;;;;;;7.00;99.90;;;;;;5025306;28;19983;-64
2022/11/27 04:09:18;;;;;;;;;;;7.20;99.90;;;;;;5021915;28;19984;-65
2022/11/27 04:11:46;;;;;;;;;;;7.00;99.90;;;;;;5020067;28;19975;-65
2022/11/27 04:14:14;;;;;;;;;;;7.10;99.90;;;;;;5027404;28;19964;-65
2022/11/27 04:16:41;;;;;;;;;;;7.20;99.90;;;;;;5027150;28;19972;-65
2022/11/27 04:19:09;;;;;;;;;;;7.20;99.90;;;;;;5028190;28;19964;-65
2022/11/27 04:21:37;;;;;;;;;;;7.30;99.90;;;;;;5030507;28;20344;-65
2022/11/27 04:24:06;;;;;;;;;;;7.30;99.90;;;;;;5031372;28;20457;-65
2022/11/27 04:26:34;;;;;;;;;;;7.30;99.90;;;;;;5031028;28;20018;-66
2022/11/27 04:29:07;;;;;;;;;;;7.40;99.90;;;;;;5031497;28;19969;-65
2022/11/27 04:31:35;;;;;;;;;;;7.40;99.90;;;;;;5030505;28;19975;-65
2022/11/27 04:34:03;;;;;;;;;;;7.40;99.90;;;;;;5030996;28;20066;-65
2022/11/27 04:36:30;;;;;;;;;;;7.40;99.90;;;;;;5029938;28;21048;-65
2022/11/27 04:39:07;;;;;;;;;;;7.50;99.90;;;;;;5029930;28;20014;-65
2022/11/27 04:41:34;;;;;;;;;;;7.40;99.90;;;;;;5030126;28;19968;-65
2022/11/27 04:44:02;;;;;;;;;;;7.40;99.90;;;;;;5031242;28;19965;-65
2022/11/27 04:46:30;;;;;;;;;;;7.40;99.90;;;;;;5031137;28;19968;-65
2022/11/27 04:48:57;;;;;;;;;;;7.40;99.90;;;;;;5030961;28;19965;-65
2022/11/27 04:51:25;;;;;;;;;;;7.30;99.90;;;;;;5029907;28;20019;-67
2022/11/27 04:53:53;;;;;;;;;;;7.30;99.90;;;;;;5031251;28;19965;-65
2022/11/27 04:56:22;;;;;;;;;;;7.20;99.90;;;;;;5031084;28;20067;-65
2022/11/27 04:58:50;;;;;;;;;;;6.90;99.90;;;;;;5031139;28;19975;-65
2022/11/27 05:01:18;;;;;;;;;;;6.90;99.90;;;;;;5030304;28;20063;-65
2022/11/27 05:03:46;;;;;;;;;;;6.70;99.90;;;;;;5030743;28;19975;-65
2022/11/27 05:06:14;;;;;;;;;;;6.70;99.90;;;;;;5031249;28;19995;-66
2022/11/27 05:08:42;;;;;;;;;;;6.80;99.90;;;;;;5030673;28;19976;-64
2022/11/27 05:11:11;;;;;;;;;;;6.60;99.90;;;;;;5027099;28;19975;-65
2022/11/27 05:13:40;;;;;;;;;;;6.40;99.90;;;;;;5033487;28;19972;-65
2022/11/27 05:16:08;;;;;;;;;;;6.40;99.90;;;;;;5034726;28;19972;-65
2022/11/27 05:18:35;;;;;;;;;;;6.40;99.90;;;;;;5034092;28;20330;-66
2022/11/27 05:21:04;;;;;;;;;;;6.40;99.90;;;;;;5032794;28;19964;-65
2022/11/27 05:23:33;;;;;;;;;;;6.20;99.90;;;;;;5032467;28;19972;-65
2022/11/27 05:26:02;;;;;;;;;;;6.20;99.90;;;;;;5033554;28;19964;-65
2022/11/27 05:28:29;;;;;;;;;;;6.20;99.90;;;;;;5032134;28;19979;-64
2022/11/27 05:30:59;;;;;;;;;;;6.30;99.90;;;;;;5032591;28;19979;-65
2022/11/27 05:33:27;;;;;;;;;;;6.30;99.90;;;;;;5031435;28;19968;-65
2022/11/27 05:35:54;;;;;;;;;;;6.10;99.90;;;;;;5032970;28;19964;-65
2022/11/27 05:38:22;;;;;;;;;;;6.00;99.90;;;;;;5033615;28;19975;-65
2022/11/27 05:40:50;;;;;;;;;;;6.00;99.90;;;;;;5033675;28;19972;-65
2022/11/27 05:43:17;;;;;;;;;;;6.10;99.90;;;;;;5034203;28;19979;-65
2022/11/27 05:45:45;;;;;;;;;;;6.00;99.90;;;;;;5034257;28;19978;-65
2022/11/27 05:48:14;;;;;;;;;;;6.00;99.90;;;;;;5034103;28;19973;-65
2022/11/27 05:50:42;;;;;;;;;;;6.20;99.90;;;;;;5033383;28;19969;-65
2022/11/27 05:53:09;;;;;;;;;;;6.20;99.90;;;;;;5033543;28;19971;-65
2022/11/27 05:55:37;;;;;;;;;;;6.20;99.90;;;;;;5032913;28;19971;-65
2022/11/27 05:58:05;;;;;;;;;;;6.30;99.90;;;;;;5029024;28;19975;-65
2022/11/27 06:00:33;;;;;;;;;;;6.20;99.90;;;;;;5033449;28;20077;-65
2022/11/27 06:03:00;;;;;;;;;;;6.10;99.90;;;;;;5034045;28;19972;-65
2022/11/27 06:05:30;;;;;;;;;;;6.00;99.90;;;;;;5033845;28;19968;-65
2022/11/27 06:07:57;;;;;;;;;;;6.10;99.90;;;;;;5033605;28;20441;-65
2022/11/27 06:10:25;;;;;;;;;;;6.20;99.90;;;;;;5033018;28;19975;-66
2022/11/27 06:12:53;;;;;;;;;;;6.20;99.90;;;;;;5014057;28;19976;-66
2022/11/27 06:15:21;;;;;;;;;;;6.30;99.90;;;;;;5022896;28;19975;-65
2022/11/27 06:17:49;;;;;;;;;;;6.30;99.90;;;;;;5033569;28;20104;-65
2022/11/27 06:20:19;;;;;;;;;;;6.40;99.90;;;;;;5032893;28;19968;-65
2022/11/27 06:22:48;;;;;;;;;;;6.40;99.90;;;;;;5034226;28;19975;-65
2022/11/27 06:25:16;;;;;;;;;;;6.50;99.90;;;;;;5033186;28;19972;-65
2022/11/27 06:27:43;;;;;;;;;;;6.60;99.90;;;;;;5033291;28;19964;-66
2022/11/27 06:30:12;;;;;;;;;;;6.70;99.90;;;;;;5032978;28;19969;-65
2022/11/27 06:32:39;;;;;;;;;;;6.80;99.90;;;;;;5033584;28;20011;-65
2022/11/27 06:35:08;;;;;;;;;;;6.90;99.90;;;;;;5033327;28;19972;-65
2022/11/27 06:37:35;;;;;;;;;;;6.90;99.90;;;;;;5032825;28;19975;-65
2022/11/27 06:40:06;;;;;;;;;;;6.90;99.90;;;;;;5032780;28;20051;-65
2022/11/27 06:42:33;;;;;;;;;;;6.90;99.90;;;;;;5033124;28;20368;-64
2022/11/27 06:45:01;;;;;;;;;;;6.90;99.90;;;;;;5033129;28;19990;-65
2022/11/27 06:47:29;;;;;;;;;;;6.90;99.90;;;;;;5032949;28;19972;-66
2022/11/27 06:49:56;;;;;;;;;;;7.00;99.90;;;;;;5032220;28;20370;-65
2022/11/27 06:52:24;;;;;;;;;;;7.00;99.90;;;;;;5033057;28;19968;-66
2022/11/27 06:54:52;;;;;;;;;;;7.00;99.90;;;;;;5033400;28;19969;-66
2022/11/27 06:57:21;;;;;;;;;;;7.00;99.90;;;;;;5032729;28;20059;-66
2022/11/27 06:59:49;;;;;;;;;;;6.80;99.90;;;;;;5032243;28;19979;-65
2022/11/27 07:02:16;;;;;;;;;;;6.60;99.90;;;;;;5032963;28;19968;-66
2022/11/27 07:04:44;;;;;;;;;;;6.50;99.90;;;;;;5030860;28;19971;-65
2022/11/27 07:07:12;;;;;;;;;;;6.20;99.90;;;;;;5031347;28;19976;-66
2022/11/27 07:09:40;;;;;;;;;;;6.00;99.90;;;;;;5032191;28;20071;-65
2022/11/27 07:12:08;;;;;;;;;;;5.90;99.90;;;;;;5023904;28;19969;-66
2022/11/27 07:14:37;;;;;;;;;;;5.90;99.90;;;;;;5013551;28;19974;-66
2022/11/27 07:17:05;;;;;;;;;;;5.90;99.90;;;;;;5015501;28;19972;-66
2022/11/27 07:19:33;;;;;;;;;;;5.80;99.90;;;;;;5016396;28;19971;-66
2022/11/27 07:22:01;;;;;;;;;;;5.60;99.90;;;;;;5017889;28;19979;-66
2022/11/27 07:24:29;;;;;;;;;;;5.50;99.90;;;;;;5018523;28;19977;-66
2022/11/27 07:26:56;;;;;;;;;;;5.40;99.90;;;;;;5016185;28;19977;-68
2022/11/27 07:29:24;;;;;;;;;;;5.30;99.90;;;;;;5017825;28;19973;-66
2022/11/27 07:31:53;;;;;;;;;;;5.40;99.90;;;;;;5017172;28;19972;-66
2022/11/27 07:34:21;;;;;;;;;;;5.30;99.90;;;;;;5018791;28;20018;-66
2022/11/27 07:36:49;;;;;;;;;;;5.30;99.90;;;;;;5014265;28;19972;-66
2022/11/27 07:39:17;;;;;;;;;;;5.10;99.90;;;;;;5019871;28;19979;-66
2022/11/27 07:42:04;;;;;;;;;;;5.00;99.90;;;;;;5017071;28;19965;-66
2022/11/27 07:44:52;;;;;;;;;;;5.00;99.90;;;;;;5015717;28;20269;-67
2022/11/27 07:47:21;;;;;;;;;;;5.00;99.90;;;;;;5015769;28;19979;-66
2022/11/27 07:49:49;;;;;;;;;;;5.00;99.90;;;;;;5018335;28;19973;-66
2022/11/27 07:52:16;;;;;;;;;;;5.10;99.90;;;;;;5017725;28;19972;-66
2022/11/27 07:54:44;;;;;;;;;;;5.10;99.90;;;;;;5016028;28;21066;-66
2022/11/27 07:57:12;;;;;;;;;;;5.10;99.90;;;;;;5012991;28;19978;-66
2022/11/27 07:59:39;;;;;;;;;;;5.10;99.90;;;;;;5016393;28;19965;-66
2022/11/27 08:02:14;;;;;;;;;;;5.10;99.90;;;;;;5014660;28;20034;-66
2022/11/27 08:04:43;;;;;;;;;;;5.10;99.90;;;;;;5015556;28;19978;-67
2022/11/27 08:07:11;;;;;;;;;;;5.00;99.90;;;;;;5015501;28;20015;-66
2022/11/27 08:09:39;;;;;;;;;;;5.00;99.90;;;;;;5014559;28;20030;-66
2022/11/27 08:12:07;;;;;;;;;;;5.10;99.90;;;;;;5015614;28;19964;-66
2022/11/27 08:14:35;;;;;;;;;;;5.10;99.90;;;;;;5016613;28;19973;-66
2022/11/27 08:17:03;;;;;;;;;;;5.00;99.90;;;;;;5015309;28;19975;-66
2022/11/27 08:19:30;;;;;;;;;;;5.00;99.90;;;;;;5017513;28;20111;-67
2022/11/27 08:22:00;;;;;;;;;;;5.00;99.90;;;;;;5020155;28;19983;-67
2022/11/27 08:24:27;;;;;;;;;;;5.00;99.90;;;;;;5017348;28;19983;-66
2022/11/27 08:26:55;;;;;;;;;;;5.00;99.90;;;;;;5015916;28;20073;-66
2022/11/27 08:29:25;;;;;;;;;;;5.00;99.90;;;;;;5017366;28;19972;-67
2022/11/27 08:31:59;;;;;;;;;;;5.10;99.90;;;;;;5015852;28;20656;-66
2022/11/27 08:34:26;;;;;;;;;;;5.00;99.90;;;;;;5018799;28;19980;-66
2022/11/27 08:36:54;;;;;;;;;;;5.10;99.90;;;;;;5015531;28;19972;-67
2022/11/27 08:39:25;;;;;;;;;;;5.20;99.90;;;;;;5018358;28;19973;-67
2022/11/27 08:41:53;;;;;;;;;;;5.20;99.90;;;;;;5016966;28;19979;-66
2022/11/27 08:44:21;;;;;;;;;;;5.20;99.90;;;;;;5017399;28;19979;-66
2022/11/27 08:46:48;;;;;;;;;;;5.20;99.90;;;;;;5015768;28;20067;-67
2022/11/27 08:49:16;;;;;;;;;;;5.30;99.90;;;;;;5020110;28;19979;-66
2022/11/27 08:51:44;;;;;;;;;;;5.30;99.90;;;;;;5020257;28;19972;-66
2022/11/27 08:54:12;;;;;;;;;;;5.40;99.90;;;;;;5021767;28;20546;-66
2022/11/27 08:56:41;;;;;;;;;;;5.40;99.90;;;;;;5019302;28;19972;-66
2022/11/27 08:59:08;;;;;;;;;;;5.50;99.90;;;;;;5019268;28;19976;-66
2022/11/27 09:01:36;;;;;;;;;;;5.50;99.90;;;;;;5017295;28;19964;-67
2022/11/27 09:04:04;;;;;;;;;;;5.50;99.90;;;;;;5021652;28;19971;-66
2022/11/27 09:06:33;;;;;;;;;;;5.60;99.90;;;;;;5020084;28;20008;-66
2022/11/27 09:09:02;;;;;;;;;;;5.60;99.90;;;;;;5018973;28;19978;-66
2022/11/27 09:11:30;;;;;;;;;;;5.50;99.90;;;;;;5020105;28;19977;-67
2022/11/27 09:14:00;;;;;;;;;;;5.60;99.90;;;;;;5020432;28;19979;-66
2022/11/27 09:16:28;;;;;;;;;;;5.60;99.90;;;;;;5020095;28;19972;-66
2022/11/27 09:18:57;;;;;;;;;;;5.50;99.90;;;;;;5017222;28;19972;-66
2022/11/27 09:21:27;;;;;;;;;;;5.50;99.90;;;;;;5020049;28;19977;-66
2022/11/27 09:23:55;;;;;;;;;;;5.50;99.90;;;;;;5022665;28;20467;-66
2022/11/27 09:26:24;;;;;;;;;;;5.50;99.90;;;;;;5019651;28;19975;-66
2022/11/27 09:28:52;;;;;;;;;;;5.60;99.90;;;;;;5019193;28;20007;-66
2022/11/27 09:31:22;;;;;;;;;;;5.50;99.90;;;;;;5017835;28;19979;-66
2022/11/27 09:33:50;;;;;;;;;;;5.60;99.90;;;;;;5022046;28;19968;-66
2022/11/27 09:36:18;;;;;;;;;;;5.50;99.90;;;;;;5018596;28;20353;-66
2022/11/27 09:38:46;;;;;;;;;;;5.50;99.90;;;;;;5033206;22;19972;-62
2022/11/27 09:41:25;;;;;;;;;;;5.50;99.90;;;;;;5019997;28;19972;-61
2022/11/27 09:43:55;;;;;;;;;;;5.40;99.90;;;;;;5025724;28;20099;-61
2022/11/27 09:46:28;;;;;;;;;;;5.40;99.90;;;;;;5024128;28;20555;-61
2022/11/27 09:48:57;;;;;;;;;;;5.30;99.90;;;;;;5020879;28;19979;-60
2022/11/27 09:51:28;;;;;;;;;;;5.20;99.90;;;;;;5021111;28;19973;-62
2022/11/27 09:53:58;;;;;;;;;;;5.30;99.90;;;;;;5024522;28;22001;-62
2022/11/27 09:56:25;;;;;;;;;;;5.40;99.90;;;;;;5019999;28;20091;-62
2022/11/27 09:58:56;;;;;;;;;;;5.40;99.90;;;;;;5014818;28;19973;-62
2022/11/27 10:01:26;;;;;;;;;;;5.50;99.90;;;;;;5021576;28;20015;-63
2022/11/27 10:04:05;;;;;;;;;;;5.60;99.90;;;;;;5022812;28;20019;-63
2022/11/27 10:06:36;;;;;;;;;;;5.60;99.90;;;;;;5026850;28;19972;-63
2022/11/27 10:09:11;;;;;;;;;;;5.60;99.90;;;;;;5019538;28;19965;-62
2022/11/27 10:11:46;;;;;;;;;;;5.50;99.90;;;;;;5021059;28;19964;-62
2022/11/27 10:14:19;;;;;;;;;;;5.70;99.90;;;;;;5022194;28;20349;-62
2022/11/27 10:16:50;;;;;;;;;;;5.70;99.90;;;;;;5023503;28;19972;-61
2022/11/27 10:19:26;;;;;;;;;;;5.80;99.90;;;;;;5021793;28;20002;-62
2022/11/27 10:21:56;;;;;;;;;;;5.90;99.90;;;;;;5025453;28;19979;-61
2022/11/27 10:24:29;;;;;;;;;;;6.20;99.90;;;;;;5026973;28;19980;-61
2022/11/27 10:26:58;;;;;;;;;;;6.30;99.90;;;;;;5023538;28;19974;-62
2022/11/27 10:29:34;;;;;;;;;;;6.70;99.90;;;;;;5022411;28;19976;-62
2022/11/27 10:32:06;;;;;;;;;;;7.00;99.90;;;;;;5025611;28;19968;-62
2022/11/27 10:34:37;;;;;;;;;;;7.30;99.90;;;;;;5024988;28;19964;-62
2022/11/27 10:37:08;;;;;;;;;;;7.50;99.90;;;;;;5019676;28;20337;-61
2022/11/27 10:39:39;;;;;;;;;;;7.60;99.90;;;;;;5023433;28;19980;-62
2022/11/27 10:42:09;;;;;;;;;;;7.90;99.90;;;;;;5024638;28;20047;-63
2022/11/27 10:44:39;;;;;;;;;;;8.00;99.90;;;;;;5021906;28;19964;-62
2022/11/27 10:47:11;;;;;;;;;;;8.00;99.90;;;;;;5021562;28;19980;-61
2022/11/27 10:49:40;;;;;;;;;;;7.80;99.90;;;;;;5020224;28;19965;-61
2022/11/27 10:52:12;;;;;;;;;;;7.70;99.90;;;;;;5021687;28;19968;-62
2022/11/27 10:54:39;;;;;;;;;;;7.70;99.90;;;;;;5022120;28;19972;-61
2022/11/27 10:57:25;;;;;;;;;;;7.60;99.90;;;;;;5021886;28;20082;-60
2022/11/27 11:00:01;;;;;;;;;;;7.50;99.90;;;;;;5011359;28;20444;-61
2022/11/27 11:02:31;;;;;;;;;;;7.40;99.90;;;;;;5022346;28;19973;-61
2022/11/27 11:05:09;;;;;;;;;;;7.20;99.90;;;;;;5019640;28;19972;-62
2022/11/27 11:07:58;;;;;;;;;;;7.10;99.90;;;;;;5021257;28;19976;-61
2022/11/27 11:10:30;;;;;;;;;;;7.00;99.90;;;;;;5021185;28;20482;-62
2022/11/27 11:13:16;;;;;;;;;;;6.90;99.90;;;;;;5025069;28;20870;-62
2022/11/27 11:15:49;;;;;;;;;;;6.90;99.90;;;;;;5023642;28;19991;-62
2022/11/27 11:18:20;;;;;;;;;;;6.90;99.90;;;;;;5020309;28;19979;-63
2022/11/27 11:20:49;;;;;;;;;;;6.90;99.90;;;;;;5019965;28;19983;-62
2022/11/27 11:23:23;;;;;;;;;;;6.90;99.90;;;;;;5022150;28;20776;-62
2022/11/27 11:25:52;;;;;;;;;;;6.90;99.90;;;;;;5022339;28;19968;-62
2022/11/27 11:28:20;;;;;;;;;;;7.00;99.90;;;;;;5017954;28;20052;-63
2022/11/27 11:30:59;;;;;;;;;;;7.10;99.90;;;;;;5020967;28;19988;-62
2022/11/27 11:33:29;;;;;;;;;;;7.10;99.90;;;;;;5024351;28;19983;-61
2022/11/27 11:36:00;;;;;;;;;;;7.20;99.90;;;;;;5023930;28;20557;-61
2022/11/27 11:38:29;;;;;;;;;;;7.50;99.90;;;;;;5019721;28;20441;-61
2022/11/27 11:40:59;;;;;;;;;;;7.70;99.90;;;;;;5022716;28;19991;-61
2022/11/27 11:43:27;;;;;;;;;;;8.10;99.90;;;;;;5021518;28;19976;-62
2022/11/27 11:46:03;;;;;;;;;;;8.90;99.90;;;;;;5019515;28;19972;-62
2022/11/27 11:48:32;;;;;;;;;;;9.60;99.90;;;;;;5018659;28;20485;-62
2022/11/27 11:51:01;;;;;;;;;;;10.20;99.90;;;;;;5019288;28;19972;-62
2022/11/27 11:53:32;;;;;;;;;;;10.40;99.90;;;;;;5025712;28;19977;-62
2022/11/27 11:56:03;;;;;;;;;;;10.30;99.90;;;;;;5022570;28;19968;-61
2022/11/27 11:58:36;;;;;;;;;;;10.00;99.90;;;;;;5016892;28;19973;-61
2022/11/27 12:01:10;;;;;;;;;;;9.60;99.90;;;;;;5022004;28;19964;-62
2022/11/27 12:04:04;;;;;;;;;;;9.60;99.90;;;;;;5021976;28;20559;-62
2022/11/27 12:06:36;;;;;;;;;;;9.80;99.90;;;;;;5023889;28;19972;-62
2022/11/27 12:09:13;;;;;;;;;;;9.80;99.90;;;;;;5017040;28;19965;-62
2022/11/27 12:11:44;;;;;;;;;;;9.80;99.90;;;;;;5022174;28;19983;-61
2022/11/27 12:14:19;;;;;;;;;;;9.70;99.90;;;;;;5019783;28;19973;-61
2022/11/27 12:16:52;;;;;;;;;;;9.70;99.90;;;;;;5022304;28;19973;-60
2022/11/27 12:19:40;;;;;;;;;;;9.80;99.90;;;;;;5023361;28;19988;-62
2022/11/27 12:22:12;;;;;;;;;;;9.70;99.90;;;;;;5025570;28;19964;-62
2022/11/27 12:24:45;;;;;;;;;;;9.80;99.90;;;;;;5020953;28;19980;-62
2022/11/27 12:27:21;;;;;;;;;;;9.70;99.90;;;;;;5021548;28;19983;-62
2022/11/27 12:29:57;;;;;;;;;;;9.40;99.90;;;;;;5021926;28;20091;-62
2022/11/27 12:32:33;;;;;;;;;;;9.20;99.90;;;;;;5023040;28;19976;-62
2022/11/27 12:35:13;;;;;;;;;;;9.20;99.90;;;;;;5016492;28;19971;-62
2022/11/27 12:37:49;;;;;;;;;;;9.20;99.90;;;;;;5021969;28;19970;-60
2022/11/27 12:40:22;;;;;;;;;;;9.30;99.90;;;;;;5025118;28;19972;-62
2022/11/27 12:42:53;;;;;;;;;;;9.30;99.90;;;;;;5023790;28;19968;-62
2022/11/27 12:45:22;;;;;;;;;;;9.20;99.90;;;;;;5036491;28;19964;-62
2022/11/27 12:47:53;;;;;;;;;;;9.20;99.90;;;;;;5034033;28;20034;-62
2022/11/27 12:50:26;;;;;;;;;;;9.10;99.90;;;;;;5047205;28;20445;-63
2022/11/27 12:52:57;;;;;;;;;;;9.00;99.90;;;;;;5049994;28;19972;-63
2022/11/27 12:55:27;;;;;;;;;;;9.00;99.90;;;;;;5051125;28;19976;-63
2022/11/27 12:57:59;;;;;;;;;;;9.00;99.90;;;;;;5051353;28;20465;-63
2022/11/27 13:00:29;;;;;;;;;;;9.00;99.90;;;;;;5050352;28;20018;-64
2022/11/27 13:03:02;;;;;;;;;;;9.00;99.90;;;;;;5050948;28;19976;-63
2022/11/27 13:05:33;;;;;;;;;;;9.00;99.90;;;;;;5051110;28;19979;-63
2022/11/27 13:08:02;;;;;;;;;;;9.00;99.90;;;;;;5050982;28;20074;-63
2022/11/27 13:10:32;;;;;;;;;;;9.10;99.90;;;;;;5030506;28;20022;-63
2022/11/27 13:13:04;;;;;;;;;;;9.00;99.90;;;;;;5030851;28;19975;-63
2022/11/27 13:15:34;;;;;;;;;;;9.00;99.90;;;;;;5031200;28;19972;-63
2022/11/27 13:18:04;;;;;;;;;;;9.00;99.90;;;;;;5030857;28;19972;-62
2022/11/27 13:20:35;;;;;;;;;;;8.90;99.90;;;;;;5030291;28;19968;-63
2022/11/27 13:23:03;;;;;;;;;;;8.80;99.90;;;;;;5030886;28;19969;-63
2022/11/27 13:25:33;;;;;;;;;;;8.90;99.90;;;;;;5030676;28;19969;-63
2022/11/27 13:28:02;;;;;;;;;;;8.80;99.90;;;;;;5029870;28;20449;-63
2022/11/27 13:30:32;;;;;;;;;;;8.70;99.90;;;;;;5040105;28;19969;-63
2022/11/27 13:33:01;;;;;;;;;;;8.70;99.90;;;;;;5042432;28;20344;-63
2022/11/27 13:35:30;;;;;;;;;;;8.70;99.90;;;;;;5054406;28;20054;-64
2022/11/27 13:38:05;;;;;;;;;;;8.80;99.90;;;;;;5054141;28;19968;-63
2022/11/27 13:40:36;;;;;;;;;;;8.80;99.90;;;;;;5034268;28;19972;-63
2022/11/27 13:43:05;;;;;;;;;;;8.80;99.90;;;;;;5034464;28;19969;-63
2022/11/27 13:45:34;;;;;;;;;;;8.80;99.90;;;;;;5034562;28;19969;-63
2022/11/27 13:48:04;;;;;;;;;;;8.80;99.90;;;;;;5034334;28;19969;-63
2022/11/27 13:50:42;;;;;;;;;;;8.70;99.90;;;;;;5033913;28;19974;-63
2022/11/27 13:53:11;;;;;;;;;;;8.60;99.90;;;;;;5034249;28;20441;-64
2022/11/27 13:55:40;;;;;;;;;;;8.60;99.90;;;;;;5034322;28;19979;-64
2022/11/27 13:58:08;;;;;;;;;;;8.70;99.90;;;;;;5034403;28;19968;-63
2022/11/27 14:00:36;;;;;;;;;;;8.70;99.90;;;;;;5033480;28;19984;-64
2022/11/27 14:03:04;;;;;;;;;;;8.80;99.90;;;;;;5033799;28;20475;-64
2022/11/27 14:05:37;;;;;;;;;;;8.70;99.90;;;;;;5033827;28;19979;-64
2022/11/27 14:08:16;;;;;;;;;;;8.70;99.90;;;;;;5034842;28;20002;-61
2022/11/27 14:10:51;;;;;;;;;;;8.50;99.90;;;;;;5027151;28;19965;-61
2022/11/27 14:13:19;;;;;;;;;;;8.40;99.90;;;;;;5034094;28;19968;-61
2022/11/27 14:16:00;;;;;;;;;;;8.20;99.90;;;;;;5033530;28;20089;-64
2022/11/27 14:18:29;;;;;;;;;;;8.20;99.90;;;;;;5033825;28;19972;-64
2022/11/27 14:20:58;;;;;;;;;;;8.10;99.90;;;;;;5032199;28;19974;-63
2022/11/27 14:23:28;;;;;;;;;;;8.00;99.90;;;;;;5042283;28;20428;-64
2022/11/27 14:26:07;;;;;;;;;;;8.10;99.90;;;;;;5044948;28;20357;-64
2022/11/27 14:28:42;;;;;;;;;;;8.00;99.90;;;;;;5053360;28;19968;-63
2022/11/27 14:31:21;;;;;;;;;;;8.00;99.90;;;;;;5052933;28;19975;-64
2022/11/27 14:33:49;;;;;;;;;;;8.00;99.90;;;;;;5053632;28;19975;-64
2022/11/27 14:36:37;;;;;;;;;;;8.00;99.90;;;;;;5053125;28;19978;-63
2022/11/27 14:39:05;;;;;;;;;;;8.00;99.90;;;;;;5045547;28;19964;-64
2022/11/27 14:41:34;;;;;;;;;;;7.90;99.90;;;;;;5032984;28;19975;-63
2022/11/27 14:44:02;;;;;;;;;;;7.80;99.90;;;;;;5033439;28;19973;-63
2022/11/27 14:46:31;;;;;;;;;;;7.80;99.90;;;;;;5032915;28;19975;-64
2022/11/27 14:48:59;;;;;;;;;;;7.90;99.90;;;;;;5032758;28;20529;-63